createdAt,value
2017-12-29T00:02:04.675Z,6.10
2017-12-29T00:04:33.788Z,4.73
2017-12-29T00:07:02.137Z,5.37
2017-12-29T00:09:30.479Z,5.60
2017-12-29T00:11:58.829Z,6.03
2017-12-29T00:14:27.167Z,7.87
2017-12-29T00:16:55.529Z,6.53
2017-12-29T00:19:23.872Z,8.47
2017-12-29T00:21:53.970Z,9.60
2017-12-29T00:24:22.313Z,7.60
2017-12-29T00:26:50.670Z,6.70
2017-12-29T00:29:19.906Z,7.70
2017-12-29T00:31:49.797Z,6.03
2017-12-29T00:34:18.150Z,8.90
2017-12-29T00:36:46.598Z,7.33
2017-12-29T00:39:14.943Z,7.70
2017-12-29T00:41:44.057Z,4.70
2017-12-29T00:44:12.384Z,7.00
2017-12-29T00:46:40.751Z,8.07
2017-12-29T00:49:09.092Z,6.17
2017-12-29T00:51:37.505Z,7.63
2017-12-29T00:54:05.859Z,8.53
2017-12-29T00:56:34.197Z,6.43
2017-12-29T00:59:03.318Z,7.83
2017-12-29T01:01:31.660Z,11.67
2017-12-29T01:04:00.780Z,9.67
2017-12-29T01:06:29.125Z,8.40
2017-12-29T01:08:57.470Z,8.10
2017-12-29T01:11:25.826Z,12.87
2017-12-29T01:13:54.164Z,5.87
2017-12-29T01:16:23.302Z,9.53
2017-12-29T01:18:51.647Z,8.93
2017-12-29T01:21:20.047Z,10.40
2017-12-29T01:23:50.436Z,7.87
2017-12-29T01:26:19.548Z,12.30
2017-12-29T01:28:48.841Z,10.03
2017-12-29T01:31:18.837Z,8.97
2017-12-29T01:33:47.417Z,7.43
2017-12-29T01:36:16.062Z,7.63
2017-12-29T01:38:44.670Z,9.87
2017-12-29T01:41:13.014Z,8.67
2017-12-29T01:43:41.360Z,6.90
2017-12-29T01:46:09.743Z,7.53
2017-12-29T01:48:38.097Z,8.10
2017-12-29T01:51:07.208Z,6.70
2017-12-29T01:53:36.330Z,9.63
2017-12-29T01:56:04.674Z,8.17
2017-12-29T01:58:33.767Z,7.60
2017-12-29T02:01:02.869Z,7.23
2017-12-29T02:03:31.221Z,8.23
2017-12-29T02:05:59.608Z,8.87
2017-12-29T02:08:28.720Z,6.40
2017-12-29T02:10:57.075Z,9.93
2017-12-29T02:13:26.213Z,9.27
2017-12-29T02:15:54.561Z,8.37
2017-12-29T02:18:23.330Z,6.50
2017-12-29T02:20:52.439Z,8.50
2017-12-29T02:23:20.785Z,7.93
2017-12-29T02:25:50.092Z,4.83
2017-12-29T02:28:19.240Z,6.07
2017-12-29T02:30:48.186Z,6.90
2017-12-29T02:33:17.359Z,6.57
2017-12-29T02:35:45.710Z,7.40
2017-12-29T02:38:14.065Z,9.10
2017-12-29T02:40:42.407Z,8.43
2017-12-29T02:43:10.739Z,5.13
2017-12-29T02:45:39.104Z,8.43
2017-12-29T02:48:07.439Z,6.53
2017-12-29T02:50:36.550Z,8.27
2017-12-29T02:53:05.889Z,7.00
2017-12-29T02:55:34.214Z,7.60
2017-12-29T02:58:03.325Z,5.70
2017-12-29T03:00:31.679Z,5.73
2017-12-29T03:03:00.028Z,7.23
2017-12-29T03:05:28.366Z,9.20
2017-12-29T03:07:56.701Z,4.53
2017-12-29T03:10:25.091Z,4.87
2017-12-29T03:12:54.196Z,6.70
2017-12-29T03:15:23.311Z,7.07
2017-12-29T03:17:51.654Z,7.50
2017-12-29T03:20:20.764Z,4.23
2017-12-29T03:22:50.029Z,6.20
2017-12-29T03:25:19.087Z,7.23
2017-12-29T03:27:47.928Z,5.43
2017-12-29T03:30:17.071Z,3.97
2017-12-29T03:32:45.414Z,4.30
2017-12-29T03:35:14.542Z,6.80
2017-12-29T03:37:42.885Z,4.97
2017-12-29T03:40:11.229Z,6.20
2017-12-29T03:42:39.591Z,5.27
2017-12-29T03:45:07.924Z,5.83
2017-12-29T03:47:36.277Z,6.23
2017-12-29T03:50:05.390Z,5.77
2017-12-29T03:52:33.709Z,5.90
2017-12-29T03:55:02.078Z,5.67
2017-12-29T03:57:30.422Z,5.83
2017-12-29T03:59:58.790Z,5.83
2017-12-29T04:02:27.878Z,3.63
2017-12-29T04:04:56.976Z,6.67
2017-12-29T04:07:25.329Z,6.90
2017-12-29T04:09:53.693Z,3.30
2017-12-29T04:12:22.061Z,5.83
2017-12-29T04:14:50.395Z,5.20
2017-12-29T04:17:19.134Z,4.87
2017-12-29T04:19:48.080Z,4.50
2017-12-29T04:22:16.818Z,4.30
2017-12-29T04:24:45.161Z,2.87
2017-12-29T04:27:13.523Z,5.20
2017-12-29T04:29:41.892Z,4.97
2017-12-29T04:32:10.236Z,5.23
2017-12-29T04:34:39.366Z,6.27
2017-12-29T04:37:07.718Z,5.20
2017-12-29T04:39:36.830Z,4.03
2017-12-29T04:42:05.186Z,4.20
2017-12-29T04:44:34.288Z,4.77
2017-12-29T04:47:02.653Z,5.20
2017-12-29T04:49:31.744Z,4.80
2017-12-29T04:52:00.861Z,3.13
2017-12-29T04:54:29.229Z,3.60
2017-12-29T04:56:58.331Z,4.50
2017-12-29T04:59:26.675Z,2.83
2017-12-29T05:01:55.039Z,5.40
2017-12-29T05:04:23.385Z,3.80
2017-12-29T05:06:51.723Z,5.67
2017-12-29T05:09:20.910Z,3.53
2017-12-29T05:11:49.462Z,4.07
2017-12-29T05:14:17.865Z,7.27
2017-12-29T05:16:46.226Z,4.77
2017-12-29T05:19:14.554Z,5.23
2017-12-29T05:21:42.923Z,4.17
2017-12-29T05:24:11.277Z,4.47
2017-12-29T05:26:39.651Z,4.70
2017-12-29T05:29:08.760Z,4.90
2017-12-29T05:31:37.868Z,5.70
2017-12-29T05:34:06.228Z,4.33
2017-12-29T05:36:35.349Z,4.00
2017-12-29T05:39:03.170Z,3.53
2017-12-29T05:41:31.554Z,4.37
2017-12-29T05:44:00.663Z,4.63
2017-12-29T05:46:29.793Z,3.97
2017-12-29T05:48:58.124Z,4.53
2017-12-29T05:51:27.239Z,4.90
2017-12-29T05:53:55.393Z,4.17
2017-12-29T05:56:24.524Z,3.53
2017-12-29T05:58:52.869Z,2.67
2017-12-29T06:01:21.981Z,4.37
2017-12-29T06:03:50.352Z,3.40
2017-12-29T06:06:18.872Z,4.03
2017-12-29T06:08:48.307Z,5.43
2017-12-29T06:11:16.834Z,3.53
2017-12-29T06:13:45.169Z,3.30
2017-12-29T06:16:14.267Z,2.73
2017-12-29T06:18:43.405Z,4.53
2017-12-29T06:21:11.751Z,2.77
2017-12-29T06:23:40.849Z,5.20
2017-12-29T06:26:09.180Z,3.30
2017-12-29T06:28:37.545Z,4.40
2017-12-29T06:31:05.888Z,4.53
2017-12-29T06:33:34.229Z,3.73
2017-12-29T06:36:02.663Z,3.23
2017-12-29T06:38:31.013Z,7.80
2017-12-29T06:40:59.358Z,4.10
2017-12-29T06:43:28.003Z,5.67
2017-12-29T06:45:56.353Z,5.17
2017-12-29T06:48:24.693Z,6.67
2017-12-29T06:50:53.067Z,4.27
2017-12-29T06:53:21.616Z,4.83
2017-12-29T06:55:49.982Z,5.73
2017-12-29T06:58:18.311Z,6.83
2017-12-29T07:00:47.055Z,3.47
2017-12-29T07:03:15.612Z,4.93
2017-12-29T07:05:43.952Z,4.30
2017-12-29T07:08:12.312Z,2.80
2017-12-29T07:10:40.652Z,4.67
2017-12-29T07:13:08.991Z,4.17
2017-12-29T07:15:38.089Z,3.37
2017-12-29T07:18:07.220Z,3.87
2017-12-29T07:20:35.586Z,2.77
2017-12-29T07:23:03.933Z,4.37
2017-12-29T07:25:33.027Z,3.40
2017-12-29T07:28:02.155Z,2.80
2017-12-29T07:30:30.486Z,3.57
2017-12-29T07:32:58.836Z,5.87
2017-12-29T07:35:27.174Z,4.37
2017-12-29T07:37:55.510Z,2.73
2017-12-29T07:40:23.879Z,4.87
2017-12-29T07:42:52.217Z,3.67
2017-12-29T07:45:20.577Z,3.60
2017-12-29T07:47:49.305Z,2.87
2017-12-29T07:50:18.166Z,5.37
2017-12-29T07:52:46.850Z,5.37
2017-12-29T07:55:15.188Z,3.20
2017-12-29T07:57:44.292Z,4.20
2017-12-29T08:00:13.417Z,6.30
2017-12-29T08:02:41.750Z,4.83
2017-12-29T08:05:10.144Z,4.47
2017-12-29T08:07:39.262Z,3.97
2017-12-29T08:10:07.591Z,6.77
2017-12-29T08:12:35.945Z,2.93
2017-12-29T08:15:04.304Z,3.93
2017-12-29T08:17:33.586Z,4.33
2017-12-29T08:20:01.928Z,5.17
2017-12-29T08:22:30.255Z,3.30
2017-12-29T08:24:58.618Z,5.40
2017-12-29T08:27:26.959Z,3.57
2017-12-29T08:29:55.312Z,2.73
2017-12-29T08:32:23.667Z,3.37
2017-12-29T08:34:52.013Z,3.30
2017-12-29T08:37:20.359Z,2.27
2017-12-29T08:39:49.624Z,3.60
2017-12-29T08:42:17.965Z,2.17
2017-12-29T08:44:46.295Z,4.97
2017-12-29T08:47:14.661Z,4.23
2017-12-29T08:49:43.196Z,3.13
2017-12-29T08:52:12.331Z,3.27
2017-12-29T08:54:40.667Z,2.70
2017-12-29T08:57:09.013Z,2.63
2017-12-29T08:59:37.374Z,2.20
2017-12-29T09:02:05.718Z,3.00
2017-12-29T09:04:34.273Z,2.63
2017-12-29T09:07:03.388Z,2.37
2017-12-29T09:09:31.722Z,3.30
2017-12-29T09:12:00.119Z,2.83
2017-12-29T09:14:28.626Z,1.80
2017-12-29T09:16:56.973Z,1.70
2017-12-29T09:19:26.077Z,2.53
2017-12-29T09:21:54.424Z,3.70
2017-12-29T09:24:22.627Z,3.37
2017-12-29T09:26:51.724Z,3.93
2017-12-29T09:29:20.093Z,2.80
2017-12-29T09:31:49.228Z,4.23
2017-12-29T09:34:17.605Z,3.93
2017-12-29T09:36:45.925Z,4.67
2017-12-29T09:39:15.048Z,7.60
2017-12-29T09:41:43.402Z,4.17
2017-12-29T09:44:12.540Z,6.13
2017-12-29T09:46:40.954Z,4.67
2017-12-29T09:49:09.379Z,3.10
2017-12-29T09:51:37.726Z,4.20
2017-12-29T09:54:06.833Z,4.03
2017-12-29T09:56:35.941Z,4.57
2017-12-29T09:59:04.304Z,3.83
2017-12-29T10:01:33.407Z,4.53
2017-12-29T10:04:01.764Z,4.57
2017-12-29T10:06:30.126Z,3.33
2017-12-29T10:08:58.464Z,3.10
2017-12-29T10:11:26.835Z,3.77
2017-12-29T10:13:55.176Z,7.40
2017-12-29T10:16:24.279Z,2.90
2017-12-29T10:18:53.386Z,6.00
2017-12-29T10:21:21.738Z,3.73
2017-12-29T10:23:50.877Z,3.67
2017-12-29T10:26:19.206Z,3.73
2017-12-29T10:28:49.096Z,2.70
2017-12-29T10:31:18.464Z,5.67
2017-12-29T10:33:47.063Z,4.93
2017-12-29T10:36:15.395Z,4.33
2017-12-29T10:38:43.738Z,5.80
2017-12-29T10:41:12.092Z,2.63
2017-12-29T10:43:41.089Z,3.30
2017-12-29T10:46:09.446Z,3.23
2017-12-29T10:48:37.844Z,5.40
2017-12-29T10:51:06.346Z,3.93
2017-12-29T10:53:34.709Z,3.00
2017-12-29T10:56:03.056Z,3.07
2017-12-29T10:58:31.388Z,3.47
2017-12-29T11:00:59.741Z,2.93
2017-12-29T11:03:28.091Z,5.10
2017-12-29T11:05:56.437Z,6.37
2017-12-29T11:08:24.852Z,4.47
2017-12-29T11:10:53.211Z,4.47
2017-12-29T11:13:21.552Z,4.33
2017-12-29T11:15:50.660Z,4.93
2017-12-29T11:18:19.900Z,5.40
2017-12-29T11:20:48.409Z,5.30
2017-12-29T11:23:17.172Z,5.10
2017-12-29T11:25:45.492Z,6.90
2017-12-29T11:28:14.602Z,6.57
2017-12-29T11:30:42.953Z,5.23
2017-12-29T11:33:12.120Z,7.30
2017-12-29T11:35:40.478Z,7.07
2017-12-29T11:38:08.837Z,7.70
2017-12-29T11:40:37.217Z,6.17
2017-12-29T11:43:05.544Z,8.67
2017-12-29T11:45:33.883Z,9.87
2017-12-29T11:48:02.241Z,9.03
2017-12-29T11:50:30.575Z,10.37
2017-12-29T11:52:59.005Z,6.40
2017-12-29T11:55:27.345Z,7.07
2017-12-29T11:57:56.439Z,7.07
2017-12-29T12:00:25.603Z,10.67
2017-12-29T12:02:53.944Z,7.63
2017-12-29T12:05:22.380Z,9.23
2017-12-29T12:07:50.724Z,8.70
2017-12-29T12:10:19.640Z,9.93
2017-12-29T12:12:47.992Z,6.60
2017-12-29T12:15:16.339Z,5.97
2017-12-29T12:17:44.703Z,5.13
2017-12-29T12:20:13.030Z,5.67
2017-12-29T12:22:41.379Z,5.50
2017-12-29T12:25:09.719Z,5.13
2017-12-29T12:27:38.815Z,3.93
2017-12-29T12:30:07.912Z,4.57
2017-12-29T12:32:36.264Z,5.77
2017-12-29T12:35:04.597Z,3.37
2017-12-29T12:37:32.962Z,4.67
2017-12-29T12:40:01.291Z,7.37
2017-12-29T12:42:29.652Z,9.37
2017-12-29T12:44:58.020Z,5.00
2017-12-29T12:47:26.330Z,7.33
2017-12-29T12:49:55.442Z,3.87
2017-12-29T12:52:23.780Z,5.70
2017-12-29T12:54:52.129Z,7.67
2017-12-29T12:57:20.470Z,5.20
2017-12-29T12:59:50.306Z,6.43
2017-12-29T13:02:18.643Z,6.80
2017-12-29T13:04:47.752Z,4.60
2017-12-29T13:07:17.170Z,6.60
2017-12-29T13:09:45.500Z,5.33
2017-12-29T13:12:13.883Z,5.87
2017-12-29T13:14:42.241Z,5.63
2017-12-29T13:17:10.577Z,5.73
2017-12-29T13:19:38.944Z,6.03
2017-12-29T13:22:07.268Z,7.00
2017-12-29T13:24:35.617Z,4.77
2017-12-29T13:27:03.958Z,4.83
2017-12-29T13:29:33.071Z,4.50
2017-12-29T13:32:01.449Z,5.33
2017-12-29T13:34:29.789Z,6.87
2017-12-29T13:36:58.152Z,5.50
2017-12-29T13:39:26.515Z,5.50
2017-12-29T13:41:54.837Z,4.63
2017-12-29T13:44:23.186Z,5.70
2017-12-29T13:46:51.515Z,7.70
2017-12-29T13:49:19.867Z,5.33
2017-12-29T13:51:49.217Z,4.80
2017-12-29T13:54:18.729Z,5.33
2017-12-29T13:56:47.178Z,5.07
2017-12-29T13:59:15.341Z,6.20
2017-12-29T14:01:43.722Z,5.83
2017-12-29T14:04:12.071Z,5.77
2017-12-29T14:06:41.180Z,7.00
2017-12-29T14:09:09.506Z,5.07
2017-12-29T14:11:37.876Z,4.87
2017-12-29T14:14:06.201Z,5.13
2017-12-29T14:16:34.544Z,3.97
2017-12-29T14:19:02.928Z,4.37
2017-12-29T14:21:31.280Z,4.90
2017-12-29T14:23:59.618Z,5.07
2017-12-29T14:26:27.969Z,6.23
2017-12-29T14:28:57.089Z,5.77
2017-12-29T14:31:25.420Z,8.67
2017-12-29T14:33:53.777Z,6.00
2017-12-29T14:36:22.140Z,5.87
2017-12-29T14:38:50.481Z,7.27
2017-12-29T14:41:19.451Z,5.40
2017-12-29T14:43:48.579Z,8.50
2017-12-29T14:46:17.287Z,6.10
2017-12-29T14:48:45.660Z,5.17
2017-12-29T14:51:14.001Z,5.77
2017-12-29T14:53:42.332Z,5.13
2017-12-29T14:56:10.697Z,5.20
2017-12-29T14:58:39.018Z,6.40
2017-12-29T15:01:08.143Z,5.40
2017-12-29T15:03:36.470Z,5.20
2017-12-29T15:06:04.829Z,9.03
2017-12-29T15:08:33.176Z,5.00
2017-12-29T15:11:01.506Z,5.33
2017-12-29T15:13:29.899Z,5.93
2017-12-29T15:15:59.005Z,6.57
2017-12-29T15:18:27.330Z,5.43
2017-12-29T15:20:55.692Z,6.07
2017-12-29T15:23:24.281Z,5.77
2017-12-29T15:25:52.859Z,4.40
2017-12-29T15:28:22.441Z,6.23
2017-12-29T15:30:50.801Z,4.23
2017-12-29T15:33:19.586Z,3.53
2017-12-29T15:35:48.552Z,7.80
2017-12-29T15:38:17.295Z,2.00
2017-12-29T15:41:04.519Z,3.67
2017-12-29T15:43:32.847Z,2.53
2017-12-29T15:46:02.013Z,3.90
2017-12-29T15:48:30.363Z,2.13
2017-12-29T15:51:00.544Z,3.80
2017-12-29T15:53:29.676Z,3.10
2017-12-29T15:55:58.094Z,2.17
2017-12-29T15:58:26.509Z,2.47
2017-12-29T16:00:56.712Z,1.50
2017-12-29T16:03:25.823Z,2.53
2017-12-29T16:05:54.193Z,2.57
2017-12-29T16:08:23.307Z,3.33
2017-12-29T16:10:51.721Z,9.90
2017-12-29T16:13:20.076Z,0.67
2017-12-29T16:15:48.983Z,4.13
2017-12-29T16:18:17.913Z,2.67
2017-12-29T16:20:47.244Z,2.00
2017-12-29T16:23:15.610Z,3.80
2017-12-29T16:25:43.978Z,2.03
2017-12-29T16:28:12.330Z,3.23
2017-12-29T16:30:40.530Z,4.30
2017-12-29T16:33:08.861Z,3.67
2017-12-29T16:35:37.257Z,2.73
2017-12-29T16:38:06.373Z,3.83
2017-12-29T16:40:34.730Z,4.17
2017-12-29T16:43:03.837Z,3.70
2017-12-29T16:45:33.143Z,3.67
2017-12-29T16:48:01.482Z,2.73
2017-12-29T16:50:29.864Z,3.17
2017-12-29T16:52:58.254Z,3.37
2017-12-29T16:55:27.375Z,5.17
2017-12-29T16:57:55.745Z,4.60
2017-12-29T17:00:24.095Z,3.67
2017-12-29T17:02:52.437Z,2.83
2017-12-29T17:05:20.860Z,5.30
2017-12-29T17:07:50.218Z,6.03
2017-12-29T17:10:18.829Z,3.80
2017-12-29T17:12:47.213Z,3.50
2017-12-29T17:15:15.659Z,1.97
2017-12-29T17:17:44.018Z,4.67
2017-12-29T17:20:12.399Z,3.60
2017-12-29T17:22:41.689Z,4.17
2017-12-29T17:25:10.041Z,4.67
2017-12-29T17:27:38.413Z,4.23
2017-12-29T17:30:07.527Z,7.33
2017-12-29T17:32:35.681Z,10.27
2017-12-29T17:35:04.806Z,6.13
2017-12-29T17:37:33.182Z,1.77
2017-12-29T17:40:01.598Z,2.93
2017-12-29T17:42:29.946Z,3.77
2017-12-29T17:44:58.299Z,4.50
2017-12-29T17:47:26.665Z,3.67
2017-12-29T17:49:55.013Z,4.43
2017-12-29T17:52:23.360Z,3.27
2017-12-29T17:54:51.749Z,3.83
2017-12-29T17:57:20.086Z,3.90
2017-12-29T17:59:49.293Z,3.90
2017-12-29T18:02:18.154Z,2.47
2017-12-29T18:04:47.322Z,3.73
2017-12-29T18:07:15.682Z,5.27
2017-12-29T18:09:44.048Z,1.60
2017-12-29T18:12:12.408Z,3.80
2017-12-29T18:14:40.773Z,3.53
2017-12-29T18:17:09.117Z,4.47
2017-12-29T18:19:38.221Z,4.97
2017-12-29T18:22:07.351Z,3.80
2017-12-29T18:24:35.701Z,2.03
2017-12-29T18:27:03.746Z,1.80
2017-12-29T18:29:32.292Z,3.57
2017-12-29T18:32:00.643Z,4.40
2017-12-29T18:34:29.003Z,4.00
2017-12-29T18:36:57.343Z,2.63
2017-12-29T18:39:25.719Z,6.40
2017-12-29T18:41:54.055Z,5.17
2017-12-29T18:44:22.412Z,5.07
2017-12-29T18:46:50.788Z,5.47
2017-12-29T18:49:19.958Z,2.90
2017-12-29T18:51:47.955Z,3.73
2017-12-29T18:54:16.323Z,7.13
2017-12-29T18:56:45.649Z,3.10
2017-12-29T18:59:14.612Z,5.27
2017-12-29T19:01:42.996Z,4.83
2017-12-29T19:04:11.339Z,5.10
2017-12-29T19:06:39.710Z,6.93
2017-12-29T19:09:08.043Z,1.73
2017-12-29T19:11:36.407Z,5.47
2017-12-29T19:14:04.754Z,4.10
2017-12-29T19:16:32.776Z,3.07
2017-12-29T19:19:01.085Z,2.80
2017-12-29T19:21:29.449Z,4.87
2017-12-29T19:23:57.824Z,3.50
2017-12-29T19:26:26.157Z,5.23
2017-12-29T19:28:54.518Z,4.70
2017-12-29T19:31:23.620Z,3.57
2017-12-29T19:33:51.648Z,5.13
2017-12-29T19:36:20.915Z,4.13
2017-12-29T19:38:50.041Z,3.27
2017-12-29T19:41:18.410Z,3.30
2017-12-29T19:43:46.758Z,4.27
2017-12-29T19:46:15.089Z,5.60
2017-12-29T19:48:44.226Z,6.80
2017-12-29T19:51:12.573Z,5.80
2017-12-29T19:53:41.719Z,3.40
2017-12-29T19:56:10.068Z,4.40
2017-12-29T19:58:38.425Z,5.73
2017-12-29T20:01:07.564Z,6.47
2017-12-29T20:03:35.918Z,4.03
2017-12-29T20:06:04.254Z,4.37
2017-12-29T20:08:32.699Z,5.00
2017-12-29T20:11:01.043Z,5.10
2017-12-29T20:13:29.383Z,5.53
2017-12-29T20:15:57.836Z,5.57
2017-12-29T20:18:26.962Z,5.60
2017-12-29T20:20:56.072Z,4.10
2017-12-29T20:23:25.197Z,4.03
2017-12-29T20:25:53.582Z,5.60
2017-12-29T20:28:22.875Z,3.70
2017-12-29T20:30:51.228Z,4.40
2017-12-29T20:33:19.592Z,4.53
2017-12-29T20:35:49.394Z,4.67
2017-12-29T20:38:18.490Z,3.67
2017-12-29T20:40:48.213Z,5.60
2017-12-29T20:43:16.628Z,5.60
2017-12-29T20:45:44.967Z,4.00
2017-12-29T20:48:13.761Z,4.00
2017-12-29T20:50:42.104Z,3.70
2017-12-29T20:53:10.463Z,3.77
2017-12-29T20:55:38.812Z,5.47
2017-12-29T20:58:07.152Z,5.73
2017-12-29T21:00:36.263Z,6.70
2017-12-29T21:03:04.473Z,9.33
2017-12-29T21:05:32.831Z,9.33
2017-12-29T21:08:01.192Z,7.00
2017-12-29T21:10:29.537Z,7.10
2017-12-29T21:12:57.984Z,7.63
2017-12-29T21:15:27.269Z,6.53
2017-12-29T21:17:55.620Z,5.23
2017-12-29T21:20:23.970Z,5.03
2017-12-29T21:22:53.088Z,9.60
2017-12-29T21:25:21.549Z,7.93
2017-12-29T21:27:50.662Z,7.60
2017-12-29T21:30:19.534Z,5.33
2017-12-29T21:32:49.541Z,3.53
2017-12-29T21:35:18.768Z,3.27
2017-12-29T21:37:47.505Z,5.13
2017-12-29T21:40:15.934Z,3.80
2017-12-29T21:42:44.318Z,6.60
2017-12-29T21:45:12.798Z,5.63
2017-12-29T21:47:41.186Z,5.23
2017-12-29T21:50:09.538Z,4.93
2017-12-29T21:52:37.896Z,4.67
2017-12-29T21:55:07.012Z,4.30
2017-12-29T21:57:35.421Z,2.83
2017-12-29T22:00:03.245Z,4.93
2017-12-29T22:02:33.349Z,3.93
2017-12-29T22:05:02.481Z,4.33
2017-12-29T22:07:30.863Z,3.17
2017-12-29T22:09:59.224Z,3.27
2017-12-29T22:12:27.620Z,3.33
2017-12-29T22:14:55.962Z,3.37
2017-12-29T22:17:25.101Z,3.90
2017-12-29T22:19:53.449Z,5.23
2017-12-29T22:22:22.846Z,3.53
2017-12-29T22:24:51.198Z,3.90
2017-12-29T22:27:19.563Z,3.40
2017-12-29T22:29:48.649Z,3.47
2017-12-29T22:32:18.494Z,4.60
2017-12-29T22:34:48.266Z,4.13
2017-12-29T22:37:16.274Z,2.87
2017-12-29T22:39:45.381Z,4.23
2017-12-29T22:42:14.738Z,4.53
2017-12-29T22:44:43.089Z,6.30
2017-12-29T22:47:11.437Z,4.63
2017-12-29T22:49:39.775Z,2.90
2017-12-29T22:52:09.107Z,4.20
2017-12-29T22:54:38.203Z,4.40
2017-12-29T22:57:06.554Z,3.50
2017-12-29T22:59:34.885Z,2.97
2017-12-29T23:02:04.235Z,5.63
2017-12-29T23:04:33.376Z,2.90
2017-12-29T23:07:01.759Z,3.37
2017-12-29T23:09:30.091Z,2.87
2017-12-29T23:11:59.208Z,1.90
2017-12-29T23:14:27.539Z,3.43
2017-12-29T23:16:55.880Z,3.63
2017-12-29T23:19:24.232Z,2.47
2017-12-29T23:21:52.608Z,2.20
2017-12-29T23:24:20.964Z,1.77
2017-12-29T23:26:49.812Z,3.13
2017-12-29T23:29:18.196Z,2.33
2017-12-29T23:31:46.521Z,2.53
2017-12-29T23:34:15.092Z,2.77
2017-12-29T23:36:44.208Z,2.70
2017-12-29T23:39:12.549Z,2.70
2017-12-29T23:41:40.927Z,2.43
2017-12-29T23:44:09.272Z,2.43
2017-12-29T23:46:37.634Z,2.00
2017-12-29T23:49:05.957Z,3.07
2017-12-29T23:51:34.321Z,1.70
2017-12-29T23:54:02.769Z,1.80
2017-12-29T23:56:31.094Z,2.07
2017-12-29T23:59:00.200Z,1.47
